sensor_id;sensor_type;location;lat;lon;timestamp;P1;durP1;ratioP1;P2;durP2;ratioP2
66966;SDS011;53900;51.468;-2.586;2023-10-31T00:01:28;12.63;;;3.35;;
66966;SDS011;53900;51.468;-2.586;2023-10-31T00:03:53;9.23;;;2.80;;
66966;SDS011;53900;51.468;-2.586;2023-10-31T00:06:19;10.93;;;2.72;;
66966;SDS011;53900;51.468;-2.586;2023-10-31T00:08:44;9.20;;;2.70;;
66966;SDS011;53900;51.468;-2.586;2023-10-31T00:11:09;9.77;;;3.05;;
66966;SDS011;53900;51.468;-2.586;2023-10-31T00:13:34;11.82;;;2.55;;
66966;SDS011;53900;51.468;-2.586;2023-10-31T00:16:00;12.50;;;2.65;;
66966;SDS011;53900;51.468;-2.586;2023-10-31T00:18:25;8.25;;;2.38;;
66966;SDS011;53900;51.468;-2.586;2023-10-31T00:20:50;9.75;;;2.42;;
66966;SDS011;53900;51.468;-2.586;2023-10-31T00:23:15;12.25;;;2.35;;
66966;SDS011;53900;51.468;-2.586;2023-10-31T00:25:41;10.18;;;2.08;;
66966;SDS011;53900;51.468;-2.586;2023-10-31T00:28:06;8.07;;;2.72;;
66966;SDS011;53900;51.468;-2.586;2023-10-31T00:30:31;10.88;;;2.58;;
66966;SDS011;53900;51.468;-2.586;2023-10-31T00:32:56;16.13;;;3.17;;
66966;SDS011;53900;51.468;-2.586;2023-10-31T00:35:22;7.30;;;2.30;;
66966;SDS011;53900;51.468;-2.586;2023-10-31T00:37:47;8.35;;;2.17;;
66966;SDS011;53900;51.468;-2.586;2023-10-31T00:40:12;7.53;;;1.75;;
66966;SDS011;53900;51.468;-2.586;2023-10-31T00:42:38;5.60;;;1.85;;
66966;SDS011;53900;51.468;-2.586;2023-10-31T00:45:06;8.23;;;2.03;;
66966;SDS011;53900;51.468;-2.586;2023-10-31T00:47:31;11.25;;;2.47;;
66966;SDS011;53900;51.468;-2.586;2023-10-31T00:49:56;13.20;;;2.78;;
66966;SDS011;53900;51.468;-2.586;2023-10-31T00:52:22;11.27;;;2.28;;
66966;SDS011;53900;51.468;-2.586;2023-10-31T00:54:47;8.80;;;2.03;;
66966;SDS011;53900;51.468;-2.586;2023-10-31T00:57:12;11.18;;;2.25;;
66966;SDS011;53900;51.468;-2.586;2023-10-31T00:59:38;9.43;;;2.00;;
66966;SDS011;53900;51.468;-2.586;2023-10-31T01:02:04;5.70;;;1.80;;
66966;SDS011;53900;51.468;-2.586;2023-10-31T01:04:29;10.90;;;2.17;;
66966;SDS011;53900;51.468;-2.586;2023-10-31T01:06:56;8.25;;;2.03;;
66966;SDS011;53900;51.468;-2.586;2023-10-31T01:09:21;10.95;;;2.30;;
66966;SDS011;53900;51.468;-2.586;2023-10-31T01:11:47;8.88;;;1.98;;
66966;SDS011;53900;51.468;-2.586;2023-10-31T01:14:12;12.50;;;2.20;;
66966;SDS011;53900;51.468;-2.586;2023-10-31T01:16:37;9.73;;;2.05;;
66966;SDS011;53900;51.468;-2.586;2023-10-31T01:19:04;6.85;;;1.75;;
66966;SDS011;53900;51.468;-2.586;2023-10-31T01:21:29;7.95;;;1.90;;
66966;SDS011;53900;51.468;-2.586;2023-10-31T01:23:54;11.75;;;2.15;;
66966;SDS011;53900;51.468;-2.586;2023-10-31T01:26:19;10.75;;;1.90;;
66966;SDS011;53900;51.468;-2.586;2023-10-31T01:28:45;7.32;;;2.05;;
66966;SDS011;53900;51.468;-2.586;2023-10-31T01:31:10;11.43;;;2.35;;
66966;SDS011;53900;51.468;-2.586;2023-10-31T01:33:35;13.15;;;2.17;;
66966;SDS011;53900;51.468;-2.586;2023-10-31T01:36:00;10.60;;;2.10;;
66966;SDS011;53900;51.468;-2.586;2023-10-31T01:38:26;3.85;;;1.73;;
66966;SDS011;53900;51.468;-2.586;2023-10-31T01:40:51;10.18;;;1.88;;
66966;SDS011;53900;51.468;-2.586;2023-10-31T01:46:14;9.77;;;1.98;;
66966;SDS011;53900;51.468;-2.586;2023-10-31T01:48:39;8.48;;;2.00;;
66966;SDS011;53900;51.468;-2.586;2023-10-31T01:51:05;9.20;;;2.03;;
66966;SDS011;53900;51.468;-2.586;2023-10-31T01:53:32;7.40;;;1.77;;
66966;SDS011;53900;51.468;-2.586;2023-10-31T01:55:58;8.00;;;1.88;;
66966;SDS011;53900;51.468;-2.586;2023-10-31T01:58:28;7.22;;;2.00;;
66966;SDS011;53900;51.468;-2.586;2023-10-31T02:00:54;5.53;;;1.48;;
66966;SDS011;53900;51.468;-2.586;2023-10-31T02:03:19;11.73;;;1.90;;
66966;SDS011;53900;51.468;-2.586;2023-10-31T02:05:45;10.50;;;2.45;;
66966;SDS011;53900;51.468;-2.586;2023-10-31T02:08:10;5.55;;;1.60;;
66966;SDS011;53900;51.468;-2.586;2023-10-31T02:10:35;9.32;;;2.03;;
66966;SDS011;53900;51.468;-2.586;2023-10-31T02:13:17;10.00;;;1.75;;
66966;SDS011;53900;51.468;-2.586;2023-10-31T02:15:42;12.77;;;1.85;;
66966;SDS011;53900;51.468;-2.586;2023-10-31T02:18:08;5.13;;;1.70;;
66966;SDS011;53900;51.468;-2.586;2023-10-31T02:20:33;5.53;;;1.90;;
66966;SDS011;53900;51.468;-2.586;2023-10-31T02:22:58;9.10;;;2.35;;
66966;SDS011;53900;51.468;-2.586;2023-10-31T02:25:23;10.60;;;1.85;;
66966;SDS011;53900;51.468;-2.586;2023-10-31T02:27:49;10.30;;;1.90;;
66966;SDS011;53900;51.468;-2.586;2023-10-31T02:30:14;4.50;;;1.42;;
66966;SDS011;53900;51.468;-2.586;2023-10-31T02:32:39;7.00;;;1.80;;
66966;SDS011;53900;51.468;-2.586;2023-10-31T02:35:05;26.25;;;2.00;;
66966;SDS011;53900;51.468;-2.586;2023-10-31T02:37:30;8.18;;;1.48;;
66966;SDS011;53900;51.468;-2.586;2023-10-31T02:39:55;5.82;;;1.90;;
66966;SDS011;53900;51.468;-2.586;2023-10-31T02:42:21;6.53;;;1.52;;
66966;SDS011;53900;51.468;-2.586;2023-10-31T02:44:46;9.82;;;1.65;;
66966;SDS011;53900;51.468;-2.586;2023-10-31T02:47:11;6.75;;;1.40;;
66966;SDS011;53900;51.468;-2.586;2023-10-31T02:49:37;6.15;;;1.60;;
66966;SDS011;53900;51.468;-2.586;2023-10-31T02:52:02;6.00;;;1.67;;
66966;SDS011;53900;51.468;-2.586;2023-10-31T02:54:27;5.80;;;1.73;;
66966;SDS011;53900;51.468;-2.586;2023-10-31T02:56:52;9.82;;;1.83;;
66966;SDS011;53900;51.468;-2.586;2023-10-31T02:59:17;12.10;;;2.08;;
66966;SDS011;53900;51.468;-2.586;2023-10-31T03:01:43;10.38;;;2.03;;
66966;SDS011;53900;51.468;-2.586;2023-10-31T03:04:08;6.40;;;1.60;;
66966;SDS011;53900;51.468;-2.586;2023-10-31T03:06:33;6.63;;;1.55;;
66966;SDS011;53900;51.468;-2.586;2023-10-31T03:08:58;7.90;;;2.15;;
66966;SDS011;53900;51.468;-2.586;2023-10-31T03:11:24;7.13;;;1.90;;
66966;SDS011;53900;51.468;-2.586;2023-10-31T03:13:49;6.18;;;1.75;;
66966;SDS011;53900;51.468;-2.586;2023-10-31T03:16:14;4.20;;;1.52;;
66966;SDS011;53900;51.468;-2.586;2023-10-31T03:18:40;10.10;;;1.77;;
66966;SDS011;53900;51.468;-2.586;2023-10-31T03:21:05;9.77;;;1.80;;
66966;SDS011;53900;51.468;-2.586;2023-10-31T03:23:30;7.13;;;2.03;;
66966;SDS011;53900;51.468;-2.586;2023-10-31T03:25:55;6.25;;;1.83;;
66966;SDS011;53900;51.468;-2.586;2023-10-31T03:28:20;10.07;;;2.05;;
66966;SDS011;53900;51.468;-2.586;2023-10-31T03:30:49;6.70;;;1.80;;
66966;SDS011;53900;51.468;-2.586;2023-10-31T03:33:14;8.20;;;1.42;;
66966;SDS011;53900;51.468;-2.586;2023-10-31T03:35:39;7.60;;;1.60;;
66966;SDS011;53900;51.468;-2.586;2023-10-31T03:38:04;6.88;;;1.83;;
66966;SDS011;53900;51.468;-2.586;2023-10-31T03:40:30;8.07;;;1.63;;
66966;SDS011;53900;51.468;-2.586;2023-10-31T03:42:55;13.30;;;2.00;;
66966;SDS011;53900;51.468;-2.586;2023-10-31T03:45:20;8.38;;;2.22;;
66966;SDS011;53900;51.468;-2.586;2023-10-31T03:47:45;8.77;;;1.65;;
66966;SDS011;53900;51.468;-2.586;2023-10-31T03:50:10;5.43;;;2.08;;
66966;SDS011;53900;51.468;-2.586;2023-10-31T03:52:35;4.68;;;1.85;;
66966;SDS011;53900;51.468;-2.586;2023-10-31T03:55:01;4.60;;;1.20;;
66966;SDS011;53900;51.468;-2.586;2023-10-31T03:57:28;10.18;;;1.83;;
66966;SDS011;53900;51.468;-2.586;2023-10-31T03:59:53;10.43;;;2.25;;
66966;SDS011;53900;51.468;-2.586;2023-10-31T04:02:18;9.75;;;1.67;;
66966;SDS011;53900;51.468;-2.586;2023-10-31T04:04:43;5.38;;;1.40;;
66966;SDS011;53900;51.468;-2.586;2023-10-31T04:07:08;7.85;;;2.35;;
66966;SDS011;53900;51.468;-2.586;2023-10-31T04:09:34;6.50;;;1.58;;
66966;SDS011;53900;51.468;-2.586;2023-10-31T04:11:59;4.07;;;1.20;;
66966;SDS011;53900;51.468;-2.586;2023-10-31T04:14:24;7.20;;;1.40;;
66966;SDS011;53900;51.468;-2.586;2023-10-31T04:16:49;9.48;;;1.95;;
66966;SDS011;53900;51.468;-2.586;2023-10-31T04:19:14;3.17;;;1.45;;
66966;SDS011;53900;51.468;-2.586;2023-10-31T04:21:40;8.30;;;1.63;;
66966;SDS011;53900;51.468;-2.586;2023-10-31T04:24:05;10.52;;;1.50;;
66966;SDS011;53900;51.468;-2.586;2023-10-31T04:26:30;9.65;;;1.50;;
66966;SDS011;53900;51.468;-2.586;2023-10-31T04:28:55;7.75;;;1.90;;
66966;SDS011;53900;51.468;-2.586;2023-10-31T04:31:21;8.40;;;2.00;;
66966;SDS011;53900;51.468;-2.586;2023-10-31T04:33:46;10.68;;;2.00;;
66966;SDS011;53900;51.468;-2.586;2023-10-31T04:36:11;10.35;;;2.70;;
66966;SDS011;53900;51.468;-2.586;2023-10-31T04:38:36;8.10;;;1.63;;
66966;SDS011;53900;51.468;-2.586;2023-10-31T04:41:03;3.70;;;1.33;;
66966;SDS011;53900;51.468;-2.586;2023-10-31T04:43:28;8.60;;;1.63;;
66966;SDS011;53900;51.468;-2.586;2023-10-31T04:45:53;7.20;;;1.70;;
66966;SDS011;53900;51.468;-2.586;2023-10-31T04:48:18;7.97;;;1.63;;
66966;SDS011;53900;51.468;-2.586;2023-10-31T04:50:44;10.50;;;1.83;;
66966;SDS011;53900;51.468;-2.586;2023-10-31T04:53:09;6.97;;;1.50;;
66966;SDS011;53900;51.468;-2.586;2023-10-31T04:55:34;8.45;;;1.88;;
66966;SDS011;53900;51.468;-2.586;2023-10-31T04:57:59;6.07;;;1.52;;
66966;SDS011;53900;51.468;-2.586;2023-10-31T05:00:24;9.98;;;1.73;;
66966;SDS011;53900;51.468;-2.586;2023-10-31T05:02:50;9.23;;;1.85;;
66966;SDS011;53900;51.468;-2.586;2023-10-31T05:05:15;7.90;;;1.73;;
66966;SDS011;53900;51.468;-2.586;2023-10-31T05:07:40;6.88;;;1.90;;
66966;SDS011;53900;51.468;-2.586;2023-10-31T05:10:06;7.90;;;1.83;;
66966;SDS011;53900;51.468;-2.586;2023-10-31T05:12:31;10.38;;;2.60;;
66966;SDS011;53900;51.468;-2.586;2023-10-31T05:14:56;7.65;;;1.65;;
66966;SDS011;53900;51.468;-2.586;2023-10-31T05:17:21;7.35;;;1.70;;
66966;SDS011;53900;51.468;-2.586;2023-10-31T05:19:47;9.40;;;1.60;;
66966;SDS011;53900;51.468;-2.586;2023-10-31T05:22:12;9.38;;;1.70;;
66966;SDS011;53900;51.468;-2.586;2023-10-31T05:24:37;9.18;;;2.08;;
66966;SDS011;53900;51.468;-2.586;2023-10-31T05:27:03;6.13;;;1.52;;
66966;SDS011;53900;51.468;-2.586;2023-10-31T05:29:28;8.38;;;1.58;;
66966;SDS011;53900;51.468;-2.586;2023-10-31T05:31:55;6.10;;;1.83;;
66966;SDS011;53900;51.468;-2.586;2023-10-31T05:34:20;10.10;;;1.73;;
66966;SDS011;53900;51.468;-2.586;2023-10-31T05:36:45;7.95;;;1.42;;
66966;SDS011;53900;51.468;-2.586;2023-10-31T05:39:10;10.45;;;1.80;;
66966;SDS011;53900;51.468;-2.586;2023-10-31T05:41:36;10.10;;;2.35;;
66966;SDS011;53900;51.468;-2.586;2023-10-31T05:44:01;6.45;;;1.80;;
66966;SDS011;53900;51.468;-2.586;2023-10-31T05:46:26;13.15;;;2.03;;
66966;SDS011;53900;51.468;-2.586;2023-10-31T05:48:51;8.98;;;1.67;;
66966;SDS011;53900;51.468;-2.586;2023-10-31T05:51:17;7.22;;;1.73;;
66966;SDS011;53900;51.468;-2.586;2023-10-31T05:53:44;8.80;;;1.73;;
66966;SDS011;53900;51.468;-2.586;2023-10-31T05:56:09;5.72;;;1.63;;
66966;SDS011;53900;51.468;-2.586;2023-10-31T05:58:35;10.57;;;2.20;;
66966;SDS011;53900;51.468;-2.586;2023-10-31T06:01:00;7.15;;;1.33;;
66966;SDS011;53900;51.468;-2.586;2023-10-31T06:03:25;5.72;;;1.95;;
66966;SDS011;53900;51.468;-2.586;2023-10-31T06:05:51;6.50;;;1.70;;
66966;SDS011;53900;51.468;-2.586;2023-10-31T06:08:16;7.35;;;1.77;;
66966;SDS011;53900;51.468;-2.586;2023-10-31T06:10:41;6.15;;;1.60;;
66966;SDS011;53900;51.468;-2.586;2023-10-31T06:13:06;8.30;;;1.80;;
66966;SDS011;53900;51.468;-2.586;2023-10-31T06:15:31;3.72;;;1.50;;
66966;SDS011;53900;51.468;-2.586;2023-10-31T06:17:57;6.22;;;1.60;;
66966;SDS011;53900;51.468;-2.586;2023-10-31T06:20:22;5.60;;;1.58;;
66966;SDS011;53900;51.468;-2.586;2023-10-31T06:22:48;8.35;;;1.63;;
66966;SDS011;53900;51.468;-2.586;2023-10-31T06:25:13;7.22;;;2.25;;
66966;SDS011;53900;51.468;-2.586;2023-10-31T06:27:39;7.22;;;2.40;;
66966;SDS011;53900;51.468;-2.586;2023-10-31T06:30:04;5.88;;;1.70;;
66966;SDS011;53900;51.468;-2.586;2023-10-31T06:32:29;5.90;;;1.90;;
66966;SDS011;53900;51.468;-2.586;2023-10-31T06:34:55;9.35;;;1.35;;
66966;SDS011;53900;51.468;-2.586;2023-10-31T06:37:20;6.10;;;1.70;;
66966;SDS011;53900;51.468;-2.586;2023-10-31T06:39:45;8.52;;;1.85;;
66966;SDS011;53900;51.468;-2.586;2023-10-31T06:42:10;10.48;;;1.95;;
66966;SDS011;53900;51.468;-2.586;2023-10-31T06:44:35;4.78;;;1.50;;
66966;SDS011;53900;51.468;-2.586;2023-10-31T06:47:00;7.88;;;2.63;;
66966;SDS011;53900;51.468;-2.586;2023-10-31T06:49:26;3.80;;;1.80;;
66966;SDS011;53900;51.468;-2.586;2023-10-31T06:51:51;5.40;;;2.20;;
66966;SDS011;53900;51.468;-2.586;2023-10-31T06:54:16;9.35;;;2.75;;
66966;SDS011;53900;51.468;-2.586;2023-10-31T06:56:41;6.07;;;1.80;;
66966;SDS011;53900;51.468;-2.586;2023-10-31T06:59:06;9.15;;;2.13;;
66966;SDS011;53900;51.468;-2.586;2023-10-31T07:01:33;8.85;;;1.60;;
66966;SDS011;53900;51.468;-2.586;2023-10-31T07:03:58;4.60;;;1.60;;
66966;SDS011;53900;51.468;-2.586;2023-10-31T07:06:24;9.38;;;2.05;;
66966;SDS011;53900;51.468;-2.586;2023-10-31T07:08:50;6.07;;;1.67;;
66966;SDS011;53900;51.468;-2.586;2023-10-31T07:11:15;5.13;;;1.48;;
66966;SDS011;53900;51.468;-2.586;2023-10-31T07:13:40;6.70;;;1.90;;
66966;SDS011;53900;51.468;-2.586;2023-10-31T07:16:05;3.58;;;1.50;;
66966;SDS011;53900;51.468;-2.586;2023-10-31T07:18:31;6.80;;;1.73;;
66966;SDS011;53900;51.468;-2.586;2023-10-31T07:20:56;9.45;;;2.45;;
66966;SDS011;53900;51.468;-2.586;2023-10-31T07:23:21;6.07;;;1.65;;
66966;SDS011;53900;51.468;-2.586;2023-10-31T07:25:47;5.63;;;1.90;;
66966;SDS011;53900;51.468;-2.586;2023-10-31T07:28:12;7.07;;;1.60;;
66966;SDS011;53900;51.468;-2.586;2023-10-31T07:30:37;5.30;;;1.70;;
66966;SDS011;53900;51.468;-2.586;2023-10-31T07:33:03;8.23;;;1.67;;
66966;SDS011;53900;51.468;-2.586;2023-10-31T07:35:28;11.65;;;1.88;;
66966;SDS011;53900;51.468;-2.586;2023-10-31T07:37:53;7.25;;;1.80;;
66966;SDS011;53900;51.468;-2.586;2023-10-31T07:40:18;4.88;;;1.73;;
66966;SDS011;53900;51.468;-2.586;2023-10-31T07:42:43;12.98;;;3.35;;
66966;SDS011;53900;51.468;-2.586;2023-10-31T07:45:09;8.32;;;1.77;;
66966;SDS011;53900;51.468;-2.586;2023-10-31T07:47:35;6.20;;;1.88;;
66966;SDS011;53900;51.468;-2.586;2023-10-31T07:50:00;6.43;;;1.70;;
66966;SDS011;53900;51.468;-2.586;2023-10-31T07:52:25;5.15;;;1.80;;
66966;SDS011;53900;51.468;-2.586;2023-10-31T07:54:51;12.52;;;3.08;;
66966;SDS011;53900;51.468;-2.586;2023-10-31T07:57:17;6.50;;;1.88;;
66966;SDS011;53900;51.468;-2.586;2023-10-31T07:59:42;6.70;;;1.95;;
66966;SDS011;53900;51.468;-2.586;2023-10-31T08:02:07;11.93;;;2.45;;
66966;SDS011;53900;51.468;-2.586;2023-10-31T08:04:33;12.07;;;2.85;;
66966;SDS011;53900;51.468;-2.586;2023-10-31T08:06:58;7.55;;;2.15;;
66966;SDS011;53900;51.468;-2.586;2023-10-31T08:09:23;6.85;;;1.85;;
66966;SDS011;53900;51.468;-2.586;2023-10-31T08:11:49;5.70;;;1.83;;
66966;SDS011;53900;51.468;-2.586;2023-10-31T08:14:14;9.15;;;2.05;;
66966;SDS011;53900;51.468;-2.586;2023-10-31T08:16:40;9.05;;;2.10;;
66966;SDS011;53900;51.468;-2.586;2023-10-31T08:19:06;7.63;;;1.85;;
66966;SDS011;53900;51.468;-2.586;2023-10-31T08:21:31;7.07;;;2.03;;
66966;SDS011;53900;51.468;-2.586;2023-10-31T08:24:01;5.18;;;1.85;;
66966;SDS011;53900;51.468;-2.586;2023-10-31T08:26:26;7.60;;;2.00;;
66966;SDS011;53900;51.468;-2.586;2023-10-31T08:28:51;7.93;;;2.38;;
66966;SDS011;53900;51.468;-2.586;2023-10-31T08:31:17;7.55;;;1.85;;
66966;SDS011;53900;51.468;-2.586;2023-10-31T08:33:42;6.75;;;1.60;;
66966;SDS011;53900;51.468;-2.586;2023-10-31T08:36:07;5.20;;;1.58;;
66966;SDS011;53900;51.468;-2.586;2023-10-31T08:38:33;5.20;;;1.70;;
66966;SDS011;53900;51.468;-2.586;2023-10-31T08:40:58;8.38;;;1.58;;
66966;SDS011;53900;51.468;-2.586;2023-10-31T08:43:23;4.53;;;1.20;;
66966;SDS011;53900;51.468;-2.586;2023-10-31T08:45:48;5.22;;;1.40;;
66966;SDS011;53900;51.468;-2.586;2023-10-31T08:48:14;8.50;;;1.52;;
66966;SDS011;53900;51.468;-2.586;2023-10-31T08:50:40;5.57;;;1.70;;
66966;SDS011;53900;51.468;-2.586;2023-10-31T08:53:06;11.63;;;1.83;;
66966;SDS011;53900;51.468;-2.586;2023-10-31T08:55:31;9.98;;;1.60;;
66966;SDS011;53900;51.468;-2.586;2023-10-31T08:57:56;2.58;;;1.23;;
66966;SDS011;53900;51.468;-2.586;2023-10-31T09:00:21;5.18;;;1.20;;
66966;SDS011;53900;51.468;-2.586;2023-10-31T09:02:47;15.18;;;1.75;;
66966;SDS011;53900;51.468;-2.586;2023-10-31T09:05:12;7.95;;;1.77;;
66966;SDS011;53900;51.468;-2.586;2023-10-31T09:07:38;2.83;;;1.10;;
66966;SDS011;53900;51.468;-2.586;2023-10-31T09:10:03;3.85;;;1.27;;
66966;SDS011;53900;51.468;-2.586;2023-10-31T09:12:30;10.35;;;1.27;;
66966;SDS011;53900;51.468;-2.586;2023-10-31T09:14:55;6.38;;;1.10;;
66966;SDS011;53900;51.468;-2.586;2023-10-31T09:17:20;5.47;;;1.02;;
66966;SDS011;53900;51.468;-2.586;2023-10-31T09:19:45;3.35;;;1.17;;
66966;SDS011;53900;51.468;-2.586;2023-10-31T09:22:11;4.43;;;1.13;;
66966;SDS011;53900;51.468;-2.586;2023-10-31T09:24:36;2.60;;;0.60;;
66966;SDS011;53900;51.468;-2.586;2023-10-31T09:27:02;6.68;;;1.13;;
66966;SDS011;53900;51.468;-2.586;2023-10-31T09:29:27;7.28;;;1.33;;
66966;SDS011;53900;51.468;-2.586;2023-10-31T09:31:52;6.15;;;1.00;;
66966;SDS011;53900;51.468;-2.586;2023-10-31T09:34:17;2.88;;;1.00;;
66966;SDS011;53900;51.468;-2.586;2023-10-31T09:36:43;3.15;;;1.00;;
66966;SDS011;53900;51.468;-2.586;2023-10-31T09:39:08;7.28;;;1.40;;
66966;SDS011;53900;51.468;-2.586;2023-10-31T09:41:33;2.92;;;0.70;;
66966;SDS011;53900;51.468;-2.586;2023-10-31T09:43:59;3.42;;;0.90;;
66966;SDS011;53900;51.468;-2.586;2023-10-31T09:46:24;6.40;;;0.93;;
66966;SDS011;53900;51.468;-2.586;2023-10-31T09:48:49;1.45;;;0.60;;
66966;SDS011;53900;51.468;-2.586;2023-10-31T09:51:15;4.10;;;0.90;;
66966;SDS011;53900;51.468;-2.586;2023-10-31T09:53:41;2.60;;;0.75;;
66966;SDS011;53900;51.468;-2.586;2023-10-31T09:56:06;7.93;;;0.80;;
66966;SDS011;53900;51.468;-2.586;2023-10-31T09:58:32;3.17;;;1.17;;
66966;SDS011;53900;51.468;-2.586;2023-10-31T10:00:57;5.30;;;1.08;;
66966;SDS011;53900;51.468;-2.586;2023-10-31T10:03:22;4.47;;;0.77;;
66966;SDS011;53900;51.468;-2.586;2023-10-31T10:05:48;3.40;;;1.00;;
66966;SDS011;53900;51.468;-2.586;2023-10-31T10:08:14;3.00;;;0.93;;
66966;SDS011;53900;51.468;-2.586;2023-10-31T10:10:39;2.97;;;0.80;;
66966;SDS011;53900;51.468;-2.586;2023-10-31T10:13:04;1.48;;;0.85;;
66966;SDS011;53900;51.468;-2.586;2023-10-31T10:15:30;2.80;;;0.63;;
66966;SDS011;53900;51.468;-2.586;2023-10-31T10:17:55;3.20;;;0.80;;
66966;SDS011;53900;51.468;-2.586;2023-10-31T10:20:21;6.07;;;0.77;;
66966;SDS011;53900;51.468;-2.586;2023-10-31T10:22:46;6.63;;;0.80;;
66966;SDS011;53900;51.468;-2.586;2023-10-31T10:25:15;5.20;;;0.70;;
66966;SDS011;53900;51.468;-2.586;2023-10-31T10:27:46;8.60;;;0.90;;
66966;SDS011;53900;51.468;-2.586;2023-10-31T10:30:12;3.33;;;0.80;;
66966;SDS011;53900;51.468;-2.586;2023-10-31T10:32:38;10.10;;;0.93;;
66966;SDS011;53900;51.468;-2.586;2023-10-31T10:35:03;2.17;;;0.68;;
66966;SDS011;53900;51.468;-2.586;2023-10-31T10:37:29;3.30;;;0.60;;
66966;SDS011;53900;51.468;-2.586;2023-10-31T10:39:55;5.75;;;0.80;;
66966;SDS011;53900;51.468;-2.586;2023-10-31T10:45:04;2.70;;;1.05;;
66966;SDS011;53900;51.468;-2.586;2023-10-31T10:47:31;3.00;;;1.13;;
66966;SDS011;53900;51.468;-2.586;2023-10-31T10:49:58;1.98;;;0.63;;
66966;SDS011;53900;51.468;-2.586;2023-10-31T10:52:27;4.55;;;0.80;;
66966;SDS011;53900;51.468;-2.586;2023-10-31T10:54:54;7.00;;;1.52;;
66966;SDS011;53900;51.468;-2.586;2023-10-31T10:57:30;4.25;;;0.70;;
66966;SDS011;53900;51.468;-2.586;2023-10-31T10:59:57;4.65;;;0.90;;
66966;SDS011;53900;51.468;-2.586;2023-10-31T11:02:24;4.55;;;0.90;;
66966;SDS011;53900;51.468;-2.586;2023-10-31T11:04:50;3.88;;;1.05;;
66966;SDS011;53900;51.468;-2.586;2023-10-31T11:07:16;4.35;;;1.00;;
66966;SDS011;53900;51.468;-2.586;2023-10-31T11:09:42;8.13;;;0.93;;
66966;SDS011;53900;51.468;-2.586;2023-10-31T11:12:09;4.10;;;1.00;;
66966;SDS011;53900;51.468;-2.586;2023-10-31T11:14:35;3.88;;;1.15;;
66966;SDS011;53900;51.468;-2.586;2023-10-31T11:17:01;7.80;;;1.05;;
66966;SDS011;53900;51.468;-2.586;2023-10-31T11:19:29;4.82;;;0.95;;
66966;SDS011;53900;51.468;-2.586;2023-10-31T11:21:57;3.10;;;0.80;;
66966;SDS011;53900;51.468;-2.586;2023-10-31T11:24:23;5.35;;;0.90;;
66966;SDS011;53900;51.468;-2.586;2023-10-31T11:26:52;3.25;;;1.10;;
66966;SDS011;53900;51.468;-2.586;2023-10-31T11:29:17;2.80;;;0.80;;
66966;SDS011;53900;51.468;-2.586;2023-10-31T11:31:43;3.03;;;1.00;;
66966;SDS011;53900;51.468;-2.586;2023-10-31T11:34:08;6.10;;;0.90;;
66966;SDS011;53900;51.468;-2.586;2023-10-31T11:36:35;4.75;;;1.00;;
66966;SDS011;53900;51.468;-2.586;2023-10-31T11:39:12;4.93;;;1.23;;
66966;SDS011;53900;51.468;-2.586;2023-10-31T11:41:38;4.85;;;0.82;;
66966;SDS011;53900;51.468;-2.586;2023-10-31T11:44:03;4.80;;;0.95;;
66966;SDS011;53900;51.468;-2.586;2023-10-31T11:46:29;7.57;;;1.60;;
66966;SDS011;53900;51.468;-2.586;2023-10-31T11:48:54;10.13;;;1.40;;
66966;SDS011;53900;51.468;-2.586;2023-10-31T11:51:25;5.95;;;1.13;;
66966;SDS011;53900;51.468;-2.586;2023-10-31T11:53:50;4.00;;;0.80;;
66966;SDS011;53900;51.468;-2.586;2023-10-31T11:56:16;6.88;;;1.13;;
66966;SDS011;53900;51.468;-2.586;2023-10-31T11:58:41;9.75;;;1.38;;
66966;SDS011;53900;51.468;-2.586;2023-10-31T12:01:08;7.05;;;2.20;;
66966;SDS011;53900;51.468;-2.586;2023-10-31T12:03:37;6.57;;;1.60;;
66966;SDS011;53900;51.468;-2.586;2023-10-31T12:11:02;9.15;;;1.30;;
66966;SDS011;53900;51.468;-2.586;2023-10-31T12:13:27;3.70;;;1.10;;
66966;SDS011;53900;51.468;-2.586;2023-10-31T12:15:53;4.15;;;1.20;;
66966;SDS011;53900;51.468;-2.586;2023-10-31T12:18:18;6.30;;;1.35;;
66966;SDS011;53900;51.468;-2.586;2023-10-31T12:20:47;4.75;;;1.30;;
66966;SDS011;53900;51.468;-2.586;2023-10-31T12:23:13;9.13;;;1.02;;
66966;SDS011;53900;51.468;-2.586;2023-10-31T12:25:45;5.00;;;1.00;;
66966;SDS011;53900;51.468;-2.586;2023-10-31T12:28:10;9.88;;;1.60;;
66966;SDS011;53900;51.468;-2.586;2023-10-31T12:30:44;8.38;;;1.08;;
66966;SDS011;53900;51.468;-2.586;2023-10-31T12:33:10;10.57;;;1.00;;
66966;SDS011;53900;51.468;-2.586;2023-10-31T12:35:35;4.38;;;1.20;;
66966;SDS011;53900;51.468;-2.586;2023-10-31T12:38:01;6.70;;;1.13;;
66966;SDS011;53900;51.468;-2.586;2023-10-31T12:40:26;15.50;;;1.55;;
66966;SDS011;53900;51.468;-2.586;2023-10-31T12:42:51;14.95;;;2.03;;
66966;SDS011;53900;51.468;-2.586;2023-10-31T12:45:17;7.38;;;1.55;;
66966;SDS011;53900;51.468;-2.586;2023-10-31T12:47:43;11.30;;;1.40;;
66966;SDS011;53900;51.468;-2.586;2023-10-31T12:50:11;5.65;;;0.90;;
66966;SDS011;53900;51.468;-2.586;2023-10-31T12:55:15;5.18;;;1.15;;
66966;SDS011;53900;51.468;-2.586;2023-10-31T12:57:42;8.15;;;1.15;;
66966;SDS011;53900;51.468;-2.586;2023-10-31T13:00:08;7.68;;;1.20;;
66966;SDS011;53900;51.468;-2.586;2023-10-31T13:02:37;4.40;;;1.07;;
66966;SDS011;53900;51.468;-2.586;2023-10-31T13:07:33;4.97;;;0.85;;
66966;SDS011;53900;51.468;-2.586;2023-10-31T13:09:59;6.80;;;0.98;;
66966;SDS011;53900;51.468;-2.586;2023-10-31T13:12:24;9.55;;;1.42;;
66966;SDS011;53900;51.468;-2.586;2023-10-31T13:14:51;4.97;;;1.00;;
66966;SDS011;53900;51.468;-2.586;2023-10-31T13:17:17;4.85;;;0.95;;
66966;SDS011;53900;51.468;-2.586;2023-10-31T13:19:42;8.60;;;0.90;;
66966;SDS011;53900;51.468;-2.586;2023-10-31T13:22:07;3.65;;;0.70;;
66966;SDS011;53900;51.468;-2.586;2023-10-31T13:24:33;4.32;;;0.90;;
66966;SDS011;53900;51.468;-2.586;2023-10-31T13:26:59;2.72;;;0.90;;
66966;SDS011;53900;51.468;-2.586;2023-10-31T13:29:27;7.43;;;1.00;;
66966;SDS011;53900;51.468;-2.586;2023-10-31T13:31:53;3.72;;;1.23;;
66966;SDS011;53900;51.468;-2.586;2023-10-31T13:34:18;6.72;;;1.13;;
66966;SDS011;53900;51.468;-2.586;2023-10-31T13:36:43;3.63;;;1.00;;
66966;SDS011;53900;51.468;-2.586;2023-10-31T13:39:09;11.48;;;1.05;;
66966;SDS011;53900;51.468;-2.586;2023-10-31T13:41:34;9.10;;;1.00;;
66966;SDS011;53900;51.468;-2.586;2023-10-31T13:43:59;3.72;;;0.70;;
66966;SDS011;53900;51.468;-2.586;2023-10-31T13:46:24;5.80;;;1.17;;
66966;SDS011;53900;51.468;-2.586;2023-10-31T13:48:50;5.15;;;1.00;;
66966;SDS011;53900;51.468;-2.586;2023-10-31T13:51:15;4.85;;;0.98;;
66966;SDS011;53900;51.468;-2.586;2023-10-31T13:53:41;10.18;;;1.15;;
66966;SDS011;53900;51.468;-2.586;2023-10-31T13:56:06;5.95;;;0.80;;
66966;SDS011;53900;51.468;-2.586;2023-10-31T13:58:31;4.53;;;0.80;;
66966;SDS011;53900;51.468;-2.586;2023-10-31T14:00:57;11.52;;;0.95;;
66966;SDS011;53900;51.468;-2.586;2023-10-31T14:03:22;4.68;;;0.90;;
66966;SDS011;53900;51.468;-2.586;2023-10-31T14:05:47;5.32;;;0.93;;
66966;SDS011;53900;51.468;-2.586;2023-10-31T14:08:12;4.90;;;0.93;;
66966;SDS011;53900;51.468;-2.586;2023-10-31T14:10:38;2.60;;;0.90;;
66966;SDS011;53900;51.468;-2.586;2023-10-31T14:13:04;4.03;;;1.10;;
66966;SDS011;53900;51.468;-2.586;2023-10-31T14:15:30;3.30;;;1.20;;
66966;SDS011;53900;51.468;-2.586;2023-10-31T14:17:55;4.85;;;0.90;;
66966;SDS011;53900;51.468;-2.586;2023-10-31T14:20:20;6.10;;;1.42;;
66966;SDS011;53900;51.468;-2.586;2023-10-31T14:22:49;9.85;;;1.23;;
66966;SDS011;53900;51.468;-2.586;2023-10-31T14:25:14;5.30;;;1.15;;
66966;SDS011;53900;51.468;-2.586;2023-10-31T14:27:40;6.53;;;1.05;;
66966;SDS011;53900;51.468;-2.586;2023-10-31T14:30:05;2.45;;;0.80;;
66966;SDS011;53900;51.468;-2.586;2023-10-31T14:32:31;4.70;;;1.00;;
66966;SDS011;53900;51.468;-2.586;2023-10-31T14:34:57;4.55;;;1.08;;
66966;SDS011;53900;51.468;-2.586;2023-10-31T14:37:22;5.30;;;2.03;;
66966;SDS011;53900;51.468;-2.586;2023-10-31T14:39:47;5.07;;;1.35;;